Palmdale, Pennsylvania
Current Conditions -  °F | °C
As of 7:56 PM on Thursday 27 Nov 2014 (Local Time) from KMDT Reporting Station
Scattered Clouds Scattered Clouds  
Wind Chill: 26°   Ceiling: Unl
Heat Index: 32°   Visibility: 10mi
Dew Point: 29°   Wind: 6mph
Humidity: 88%   Direction: 310°NW
Pressure: 30.1"   Gusts: NA
Location:  40.2634°N, 76.626°W
Report Text: KMDT 280056Z 31005KT 10SM SCT075 00/M02 A3010 RMK AO2 SLP198 T00001017
Loading
Personal Weather Stations






























Interactive Weather Map New forecast layout! Learn more

10-Day Weather Forecast

Advertisements
Track Severe Weather on mobile